sensor_id;sensor_type;location;lat;lon;timestamp;temperature;humidity
59007;DHT22;44792;52.760;6.726;2023-08-31T00:49:19;12.70;99.90
59007;DHT22;44792;52.760;6.726;2023-08-31T00:51:45;12.70;99.90
59007;DHT22;44792;52.760;6.726;2023-08-31T00:54:16;12.70;99.90
59007;DHT22;44792;52.760;6.726;2023-08-31T00:56:42;12.70;99.90
59007;DHT22;44792;52.760;6.726;2023-08-31T00:59:07;12.60;99.90
59007;DHT22;44792;52.760;6.726;2023-08-31T01:01:45;12.60;99.90
59007;DHT22;44792;52.760;6.726;2023-08-31T01:04:32;12.60;99.90
59007;DHT22;44792;52.760;6.726;2023-08-31T01:07:31;12.60;99.90
59007;DHT22;44792;52.760;6.726;2023-08-31T01:12:50;12.60;99.90
59007;DHT22;44792;52.760;6.726;2023-08-31T01:15:18;12.60;99.90
59007;DHT22;44792;52.760;6.726;2023-08-31T01:17:49;12.60;99.90
59007;DHT22;44792;52.760;6.726;2023-08-31T01:20:19;12.60;99.90
59007;DHT22;44792;52.760;6.726;2023-08-31T01:25:20;12.60;99.90
59007;DHT22;44792;52.760;6.726;2023-08-31T01:27:47;12.60;99.90
59007;DHT22;44792;52.760;6.726;2023-08-31T01:30:13;12.60;99.90
59007;DHT22;44792;52.760;6.726;2023-08-31T01:32:43;12.60;99.90
59007;DHT22;44792;52.760;6.726;2023-08-31T01:35:10;12.60;99.90
59007;DHT22;44792;52.760;6.726;2023-08-31T01:37:45;12.70;99.90
59007;DHT22;44792;52.760;6.726;2023-08-31T01:40:25;12.60;99.90
59007;DHT22;44792;52.760;6.726;2023-08-31T01:42:54;12.70;99.90
59007;DHT22;44792;52.760;6.726;2023-08-31T01:45:21;12.70;99.90
59007;DHT22;44792;52.760;6.726;2023-08-31T01:47:48;12.70;99.90
59007;DHT22;44792;52.760;6.726;2023-08-31T01:50:14;12.70;99.90
59007;DHT22;44792;52.760;6.726;2023-08-31T01:52:40;12.50;99.90
59007;DHT22;44792;52.760;6.726;2023-08-31T01:55:06;12.60;99.90
59007;DHT22;44792;52.760;6.726;2023-08-31T01:57:32;12.60;99.90
59007;DHT22;44792;52.760;6.726;2023-08-31T01:59:59;12.50;99.90
59007;DHT22;44792;52.760;6.726;2023-08-31T02:02:25;12.50;99.90
59007;DHT22;44792;52.760;6.726;2023-08-31T02:04:50;12.50;99.90
59007;DHT22;44792;52.760;6.726;2023-08-31T02:07:17;12.50;99.90
59007;DHT22;44792;52.760;6.726;2023-08-31T02:09:43;12.60;99.90
59007;DHT22;44792;52.760;6.726;2023-08-31T02:12:09;12.50;99.90
59007;DHT22;44792;52.760;6.726;2023-08-31T02:14:37;12.50;99.90
59007;DHT22;44792;52.760;6.726;2023-08-31T02:17:04;12.50;99.90
59007;DHT22;44792;52.760;6.726;2023-08-31T02:19:30;12.60;99.90
59007;DHT22;44792;52.760;6.726;2023-08-31T02:21:55;12.50;99.90
59007;DHT22;44792;52.760;6.726;2023-08-31T02:24:21;12.60;99.90
59007;DHT22;44792;52.760;6.726;2023-08-31T02:26:48;12.60;99.90
59007;DHT22;44792;52.760;6.726;2023-08-31T02:29:13;12.60;99.90
59007;DHT22;44792;52.760;6.726;2023-08-31T02:31:39;12.60;99.90
59007;DHT22;44792;52.760;6.726;2023-08-31T02:34:07;12.60;99.90
59007;DHT22;44792;52.760;6.726;2023-08-31T02:36:32;12.60;99.90
59007;DHT22;44792;52.760;6.726;2023-08-31T02:38:58;12.60;99.90
59007;DHT22;44792;52.760;6.726;2023-08-31T02:41:24;12.60;99.90
59007;DHT22;44792;52.760;6.726;2023-08-31T02:43:52;12.50;99.90
59007;DHT22;44792;52.760;6.726;2023-08-31T02:46:18;12.60;99.90
59007;DHT22;44792;52.760;6.726;2023-08-31T02:48:44;12.60;99.90
59007;DHT22;44792;52.760;6.726;2023-08-31T02:51:10;12.60;99.90
59007;DHT22;44792;52.760;6.726;2023-08-31T02:53:36;12.50;99.90
59007;DHT22;44792;52.760;6.726;2023-08-31T02:56:02;12.40;99.90
59007;DHT22;44792;52.760;6.726;2023-08-31T02:58:28;12.50;99.90
59007;DHT22;44792;52.760;6.726;2023-08-31T03:00:54;12.40;99.90
59007;DHT22;44792;52.760;6.726;2023-08-31T03:03:21;12.40;99.90
59007;DHT22;44792;52.760;6.726;2023-08-31T03:05:47;12.40;99.90
59007;DHT22;44792;52.760;6.726;2023-08-31T03:08:13;12.40;99.90
59007;DHT22;44792;52.760;6.726;2023-08-31T03:10:39;12.40;99.90
59007;DHT22;44792;52.760;6.726;2023-08-31T03:13:05;12.30;99.90
59007;DHT22;44792;52.760;6.726;2023-08-31T03:15:34;12.40;99.90
59007;DHT22;44792;52.760;6.726;2023-08-31T03:18:00;12.30;99.90
59007;DHT22;44792;52.760;6.726;2023-08-31T03:20:26;12.30;99.90
59007;DHT22;44792;52.760;6.726;2023-08-31T03:22:51;12.40;99.90
59007;DHT22;44792;52.760;6.726;2023-08-31T03:25:17;12.30;99.90
59007;DHT22;44792;52.760;6.726;2023-08-31T03:27:43;12.30;99.90
59007;DHT22;44792;52.760;6.726;2023-08-31T03:30:09;12.30;99.90
59007;DHT22;44792;52.760;6.726;2023-08-31T03:32:35;12.30;99.90
59007;DHT22;44792;52.760;6.726;2023-08-31T03:35:04;12.30;99.90
59007;DHT22;44792;52.760;6.726;2023-08-31T03:37:30;12.30;99.90
59007;DHT22;44792;52.760;6.726;2023-08-31T03:39:56;12.30;99.90
59007;DHT22;44792;52.760;6.726;2023-08-31T03:42:21;12.30;99.90
59007;DHT22;44792;52.760;6.726;2023-08-31T03:44:47;12.30;99.90
59007;DHT22;44792;52.760;6.726;2023-08-31T03:47:13;12.20;99.90
59007;DHT22;44792;52.760;6.726;2023-08-31T03:49:38;12.30;99.90
59007;DHT22;44792;52.760;6.726;2023-08-31T03:52:04;12.30;99.90
59007;DHT22;44792;52.760;6.726;2023-08-31T03:54:30;12.30;99.90
59007;DHT22;44792;52.760;6.726;2023-08-31T03:56:56;12.20;99.90
59007;DHT22;44792;52.760;6.726;2023-08-31T03:59:21;12.20;99.90
59007;DHT22;44792;52.760;6.726;2023-08-31T04:01:47;12.30;99.90
59007;DHT22;44792;52.760;6.726;2023-08-31T04:04:12;12.30;99.90
59007;DHT22;44792;52.760;6.726;2023-08-31T04:06:38;12.20;99.90
59007;DHT22;44792;52.760;6.726;2023-08-31T04:09:04;12.20;99.90
59007;DHT22;44792;52.760;6.726;2023-08-31T04:11:29;12.20;99.90
59007;DHT22;44792;52.760;6.726;2023-08-31T04:13:55;12.20;99.90
59007;DHT22;44792;52.760;6.726;2023-08-31T04:16:21;12.20;99.90
59007;DHT22;44792;52.760;6.726;2023-08-31T04:18:47;12.20;99.90
59007;DHT22;44792;52.760;6.726;2023-08-31T04:21:17;12.20;99.90
59007;DHT22;44792;52.760;6.726;2023-08-31T04:23:43;12.20;99.90
59007;DHT22;44792;52.760;6.726;2023-08-31T04:26:12;12.20;99.90
59007;DHT22;44792;52.760;6.726;2023-08-31T04:28:39;12.20;99.90
59007;DHT22;44792;52.760;6.726;2023-08-31T04:31:05;12.20;99.90
59007;DHT22;44792;52.760;6.726;2023-08-31T04:33:37;12.20;99.90
59007;DHT22;44792;52.760;6.726;2023-08-31T04:36:04;12.20;99.90
59007;DHT22;44792;52.760;6.726;2023-08-31T04:38:31;12.20;99.90
59007;DHT22;44792;52.760;6.726;2023-08-31T04:41:00;12.20;99.90
59007;DHT22;44792;52.760;6.726;2023-08-31T04:43:26;12.20;99.90
59007;DHT22;44792;52.760;6.726;2023-08-31T04:45:53;12.20;99.90
59007;DHT22;44792;52.760;6.726;2023-08-31T04:48:19;12.30;99.90
59007;DHT22;44792;52.760;6.726;2023-08-31T04:50:44;12.20;99.90
59007;DHT22;44792;52.760;6.726;2023-08-31T04:53:10;12.30;99.90
59007;DHT22;44792;52.760;6.726;2023-08-31T04:55:36;12.30;99.90
59007;DHT22;44792;52.760;6.726;2023-08-31T04:58:03;12.20;99.90
59007;DHT22;44792;52.760;6.726;2023-08-31T05:00:29;12.30;99.90
59007;DHT22;44792;52.760;6.726;2023-08-31T05:02:56;12.30;99.90
59007;DHT22;44792;52.760;6.726;2023-08-31T05:05:22;12.30;99.90
59007;DHT22;44792;52.760;6.726;2023-08-31T05:07:47;12.30;99.90
59007;DHT22;44792;52.760;6.726;2023-08-31T05:10:13;12.20;99.90
59007;DHT22;44792;52.760;6.726;2023-08-31T05:12:39;12.30;99.90
59007;DHT22;44792;52.760;6.726;2023-08-31T05:15:05;12.30;99.90
59007;DHT22;44792;52.760;6.726;2023-08-31T05:17:31;12.30;99.90
59007;DHT22;44792;52.760;6.726;2023-08-31T05:19:57;12.30;99.90
59007;DHT22;44792;52.760;6.726;2023-08-31T05:22:23;12.40;99.90
59007;DHT22;44792;52.760;6.726;2023-08-31T05:24:48;12.40;99.90
59007;DHT22;44792;52.760;6.726;2023-08-31T05:27:14;12.40;99.90
59007;DHT22;44792;52.760;6.726;2023-08-31T05:29:40;12.50;99.90
59007;DHT22;44792;52.760;6.726;2023-08-31T05:32:06;12.60;99.90
59007;DHT22;44792;52.760;6.726;2023-08-31T05:34:32;12.80;99.90
59007;DHT22;44792;52.760;6.726;2023-08-31T05:37:03;12.80;99.90
59007;DHT22;44792;52.760;6.726;2023-08-31T05:39:30;12.90;99.90
59007;DHT22;44792;52.760;6.726;2023-08-31T05:41:56;12.90;99.90
59007;DHT22;44792;52.760;6.726;2023-08-31T05:44:22;13.10;99.90
59007;DHT22;44792;52.760;6.726;2023-08-31T05:46:48;13.10;99.90
59007;DHT22;44792;52.760;6.726;2023-08-31T05:49:13;13.10;99.90
59007;DHT22;44792;52.760;6.726;2023-08-31T05:51:39;13.10;99.90
59007;DHT22;44792;52.760;6.726;2023-08-31T05:54:05;13.10;99.90
59007;DHT22;44792;52.760;6.726;2023-08-31T05:56:36;13.10;99.90
59007;DHT22;44792;52.760;6.726;2023-08-31T05:59:01;13.10;99.90
59007;DHT22;44792;52.760;6.726;2023-08-31T06:01:27;13.20;99.90
59007;DHT22;44792;52.760;6.726;2023-08-31T06:03:53;13.30;99.90
59007;DHT22;44792;52.760;6.726;2023-08-31T06:06:19;13.30;99.90
59007;DHT22;44792;52.760;6.726;2023-08-31T06:08:44;13.40;99.90
59007;DHT22;44792;52.760;6.726;2023-08-31T06:11:10;13.50;99.90
59007;DHT22;44792;52.760;6.726;2023-08-31T06:13:37;13.40;99.90
59007;DHT22;44792;52.760;6.726;2023-08-31T06:16:03;13.50;99.90
59007;DHT22;44792;52.760;6.726;2023-08-31T06:18:29;13.50;99.90
59007;DHT22;44792;52.760;6.726;2023-08-31T06:20:54;13.60;99.90
59007;DHT22;44792;52.760;6.726;2023-08-31T06:23:21;13.60;99.90
59007;DHT22;44792;52.760;6.726;2023-08-31T06:25:47;13.60;99.90
59007;DHT22;44792;52.760;6.726;2023-08-31T06:28:13;13.70;99.90
59007;DHT22;44792;52.760;6.726;2023-08-31T06:30:38;13.60;99.90
59007;DHT22;44792;52.760;6.726;2023-08-31T06:33:04;13.70;99.90
59007;DHT22;44792;52.760;6.726;2023-08-31T06:35:30;13.70;99.90
59007;DHT22;44792;52.760;6.726;2023-08-31T06:37:59;13.80;99.90
59007;DHT22;44792;52.760;6.726;2023-08-31T06:40:24;13.80;99.90
59007;DHT22;44792;52.760;6.726;2023-08-31T06:42:51;13.80;99.90
59007;DHT22;44792;52.760;6.726;2023-08-31T06:45:16;13.90;99.90
59007;DHT22;44792;52.760;6.726;2023-08-31T06:47:42;13.90;99.90
59007;DHT22;44792;52.760;6.726;2023-08-31T06:50:08;14.00;99.90
59007;DHT22;44792;52.760;6.726;2023-08-31T06:52:34;14.00;99.90
59007;DHT22;44792;52.760;6.726;2023-08-31T06:55:00;14.10;99.90
59007;DHT22;44792;52.760;6.726;2023-08-31T06:57:26;14.10;99.90
59007;DHT22;44792;52.760;6.726;2023-08-31T06:59:53;14.30;99.90
59007;DHT22;44792;52.760;6.726;2023-08-31T07:02:19;14.30;99.90
59007;DHT22;44792;52.760;6.726;2023-08-31T07:04:45;14.20;99.90
59007;DHT22;44792;52.760;6.726;2023-08-31T07:07:12;14.30;99.90
59007;DHT22;44792;52.760;6.726;2023-08-31T07:09:43;14.30;99.90
59007;DHT22;44792;52.760;6.726;2023-08-31T07:12:10;14.30;99.90
59007;DHT22;44792;52.760;6.726;2023-08-31T07:14:35;14.40;99.90
59007;DHT22;44792;52.760;6.726;2023-08-31T07:17:01;14.40;99.90
59007;DHT22;44792;52.760;6.726;2023-08-31T07:19:27;14.40;99.90
59007;DHT22;44792;52.760;6.726;2023-08-31T07:21:53;14.50;99.90
59007;DHT22;44792;52.760;6.726;2023-08-31T07:24:23;14.40;99.90
59007;DHT22;44792;52.760;6.726;2023-08-31T07:26:49;14.40;99.90
59007;DHT22;44792;52.760;6.726;2023-08-31T07:29:15;14.50;99.90
59007;DHT22;44792;52.760;6.726;2023-08-31T07:31:41;14.50;99.90
59007;DHT22;44792;52.760;6.726;2023-08-31T07:34:06;14.50;99.90
59007;DHT22;44792;52.760;6.726;2023-08-31T07:36:33;14.50;99.90
59007;DHT22;44792;52.760;6.726;2023-08-31T07:38:59;14.50;99.90
59007;DHT22;44792;52.760;6.726;2023-08-31T07:41:24;14.50;99.90
59007;DHT22;44792;52.760;6.726;2023-08-31T07:43:50;14.60;99.90
59007;DHT22;44792;52.760;6.726;2023-08-31T07:46:18;14.60;99.90
59007;DHT22;44792;52.760;6.726;2023-08-31T07:48:44;14.50;99.90
59007;DHT22;44792;52.760;6.726;2023-08-31T07:51:09;14.50;99.90
59007;DHT22;44792;52.760;6.726;2023-08-31T07:53:35;14.60;99.90
59007;DHT22;44792;52.760;6.726;2023-08-31T07:56:01;14.60;99.90
59007;DHT22;44792;52.760;6.726;2023-08-31T07:58:26;14.70;99.90
59007;DHT22;44792;52.760;6.726;2023-08-31T08:00:53;14.70;99.90
59007;DHT22;44792;52.760;6.726;2023-08-31T08:03:20;14.80;99.90
59007;DHT22;44792;52.760;6.726;2023-08-31T08:05:45;14.80;99.90
59007;DHT22;44792;52.760;6.726;2023-08-31T08:08:11;14.80;99.90
59007;DHT22;44792;52.760;6.726;2023-08-31T08:10:37;14.80;99.90
59007;DHT22;44792;52.760;6.726;2023-08-31T08:13:03;14.80;99.90
59007;DHT22;44792;52.760;6.726;2023-08-31T08:15:29;14.80;99.90
59007;DHT22;44792;52.760;6.726;2023-08-31T08:17:55;14.70;99.90
59007;DHT22;44792;52.760;6.726;2023-08-31T08:20:22;14.90;99.90
59007;DHT22;44792;52.760;6.726;2023-08-31T08:22:49;15.00;99.90
59007;DHT22;44792;52.760;6.726;2023-08-31T08:25:21;15.10;99.90
59007;DHT22;44792;52.760;6.726;2023-08-31T08:27:47;15.20;99.90
59007;DHT22;44792;52.760;6.726;2023-08-31T08:30:14;15.30;99.90
59007;DHT22;44792;52.760;6.726;2023-08-31T08:32:41;15.30;99.90
59007;DHT22;44792;52.760;6.726;2023-08-31T08:35:07;15.40;99.90
59007;DHT22;44792;52.760;6.726;2023-08-31T08:37:33;15.50;99.90
59007;DHT22;44792;52.760;6.726;2023-08-31T08:39:59;15.60;99.90
59007;DHT22;44792;52.760;6.726;2023-08-31T08:42:25;15.60;99.90
59007;DHT22;44792;52.760;6.726;2023-08-31T08:44:51;15.60;99.90
59007;DHT22;44792;52.760;6.726;2023-08-31T08:47:17;15.60;99.90
59007;DHT22;44792;52.760;6.726;2023-08-31T08:49:43;15.70;99.90
59007;DHT22;44792;52.760;6.726;2023-08-31T08:52:10;15.80;99.90
59007;DHT22;44792;52.760;6.726;2023-08-31T08:54:37;15.80;99.90
59007;DHT22;44792;52.760;6.726;2023-08-31T08:57:04;15.90;99.90
59007;DHT22;44792;52.760;6.726;2023-08-31T08:59:33;15.90;99.90
59007;DHT22;44792;52.760;6.726;2023-08-31T09:01:59;16.00;99.90
59007;DHT22;44792;52.760;6.726;2023-08-31T09:04:25;16.10;99.90
59007;DHT22;44792;52.760;6.726;2023-08-31T09:06:51;16.10;99.90
59007;DHT22;44792;52.760;6.726;2023-08-31T09:09:16;16.00;99.90
59007;DHT22;44792;52.760;6.726;2023-08-31T09:11:43;15.90;99.90
59007;DHT22;44792;52.760;6.726;2023-08-31T09:14:19;15.90;99.90
59007;DHT22;44792;52.760;6.726;2023-08-31T09:16:49;15.90;99.90
59007;DHT22;44792;52.760;6.726;2023-08-31T09:19:23;15.80;99.90
59007;DHT22;44792;52.760;6.726;2023-08-31T09:21:50;15.80;99.90
59007;DHT22;44792;52.760;6.726;2023-08-31T09:24:16;15.90;99.90
59007;DHT22;44792;52.760;6.726;2023-08-31T09:26:53;15.90;99.90
59007;DHT22;44792;52.760;6.726;2023-08-31T09:29:19;16.00;99.90
59007;DHT22;44792;52.760;6.726;2023-08-31T09:31:45;16.10;99.90
59007;DHT22;44792;52.760;6.726;2023-08-31T09:34:12;16.20;99.90
59007;DHT22;44792;52.760;6.726;2023-08-31T09:36:39;16.30;99.90
59007;DHT22;44792;52.760;6.726;2023-08-31T09:39:08;16.40;99.90
59007;DHT22;44792;52.760;6.726;2023-08-31T09:41:35;16.40;99.90
59007;DHT22;44792;52.760;6.726;2023-08-31T09:44:18;16.40;99.90
59007;DHT22;44792;52.760;6.726;2023-08-31T09:46:44;16.40;99.90
59007;DHT22;44792;52.760;6.726;2023-08-31T09:49:15;16.50;99.90
59007;DHT22;44792;52.760;6.726;2023-08-31T09:51:44;16.50;99.90
59007;DHT22;44792;52.760;6.726;2023-08-31T09:54:14;16.60;99.90
59007;DHT22;44792;52.760;6.726;2023-08-31T09:56:43;16.60;99.90
59007;DHT22;44792;52.760;6.726;2023-08-31T09:59:10;16.60;99.90
59007;DHT22;44792;52.760;6.726;2023-08-31T10:01:36;16.70;99.90
59007;DHT22;44792;52.760;6.726;2023-08-31T10:04:03;16.80;99.90
59007;DHT22;44792;52.760;6.726;2023-08-31T10:06:29;16.90;99.90
59007;DHT22;44792;52.760;6.726;2023-08-31T10:08:56;16.80;99.90
59007;DHT22;44792;52.760;6.726;2023-08-31T10:11:24;16.80;99.90
59007;DHT22;44792;52.760;6.726;2023-08-31T10:13:52;16.70;99.90
59007;DHT22;44792;52.760;6.726;2023-08-31T10:16:19;16.60;99.90
59007;DHT22;44792;52.760;6.726;2023-08-31T10:18:45;16.60;99.90
59007;DHT22;44792;52.760;6.726;2023-08-31T10:21:12;16.60;99.90
59007;DHT22;44792;52.760;6.726;2023-08-31T10:23:48;16.60;99.90
59007;DHT22;44792;52.760;6.726;2023-08-31T10:26:23;16.60;99.90
59007;DHT22;44792;52.760;6.726;2023-08-31T10:28:49;16.70;99.90
59007;DHT22;44792;52.760;6.726;2023-08-31T10:31:16;16.70;99.90
59007;DHT22;44792;52.760;6.726;2023-08-31T10:33:46;16.80;99.90
59007;DHT22;44792;52.760;6.726;2023-08-31T10:36:19;16.80;99.90
59007;DHT22;44792;52.760;6.726;2023-08-31T10:39:00;16.80;99.90
59007;DHT22;44792;52.760;6.726;2023-08-31T10:41:33;16.80;99.90
59007;DHT22;44792;52.760;6.726;2023-08-31T10:43:59;16.80;99.90
59007;DHT22;44792;52.760;6.726;2023-08-31T10:46:33;16.70;99.90
59007;DHT22;44792;52.760;6.726;2023-08-31T10:49:14;16.60;99.90
59007;DHT22;44792;52.760;6.726;2023-08-31T10:51:41;16.40;99.90
59007;DHT22;44792;52.760;6.726;2023-08-31T10:59:17;15.90;99.90
59007;DHT22;44792;52.760;6.726;2023-08-31T11:04:29;16.10;99.90
59007;DHT22;44792;52.760;6.726;2023-08-31T11:07:16;16.20;99.90
59007;DHT22;44792;52.760;6.726;2023-08-31T11:09:43;16.20;99.90
59007;DHT22;44792;52.760;6.726;2023-08-31T11:12:10;16.30;99.90
59007;DHT22;44792;52.760;6.726;2023-08-31T11:14:36;16.30;99.90
59007;DHT22;44792;52.760;6.726;2023-08-31T11:17:02;16.30;99.90
59007;DHT22;44792;52.760;6.726;2023-08-31T11:19:30;16.50;99.90
59007;DHT22;44792;52.760;6.726;2023-08-31T11:21:56;16.60;99.90
59007;DHT22;44792;52.760;6.726;2023-08-31T11:24:22;16.80;99.90
59007;DHT22;44792;52.760;6.726;2023-08-31T11:26:51;16.90;99.90
59007;DHT22;44792;52.760;6.726;2023-08-31T11:29:17;17.00;99.90
59007;DHT22;44792;52.760;6.726;2023-08-31T11:31:43;17.10;99.90
59007;DHT22;44792;52.760;6.726;2023-08-31T11:34:13;17.20;99.90
59007;DHT22;44792;52.760;6.726;2023-08-31T11:36:40;17.30;99.90
59007;DHT22;44792;52.760;6.726;2023-08-31T11:39:07;17.40;99.90
59007;DHT22;44792;52.760;6.726;2023-08-31T11:41:34;17.40;99.90
59007;DHT22;44792;52.760;6.726;2023-08-31T11:44:03;17.40;99.90
59007;DHT22;44792;52.760;6.726;2023-08-31T11:46:29;17.20;99.90
59007;DHT22;44792;52.760;6.726;2023-08-31T11:48:55;17.20;99.90
59007;DHT22;44792;52.760;6.726;2023-08-31T11:51:21;17.10;99.90
59007;DHT22;44792;52.760;6.726;2023-08-31T11:53:47;17.10;99.90
59007;DHT22;44792;52.760;6.726;2023-08-31T11:56:13;17.10;99.90
59007;DHT22;44792;52.760;6.726;2023-08-31T11:58:42;17.00;99.90
59007;DHT22;44792;52.760;6.726;2023-08-31T12:01:08;17.00;99.90
59007;DHT22;44792;52.760;6.726;2023-08-31T12:03:53;17.10;99.90
59007;DHT22;44792;52.760;6.726;2023-08-31T12:06:19;17.10;99.90
59007;DHT22;44792;52.760;6.726;2023-08-31T12:08:45;17.20;99.90
59007;DHT22;44792;52.760;6.726;2023-08-31T12:11:11;17.30;99.90
59007;DHT22;44792;52.760;6.726;2023-08-31T12:13:37;17.20;99.90
59007;DHT22;44792;52.760;6.726;2023-08-31T12:16:03;17.30;99.90
59007;DHT22;44792;52.760;6.726;2023-08-31T12:18:32;17.20;99.90
59007;DHT22;44792;52.760;6.726;2023-08-31T12:21:02;17.20;99.90
59007;DHT22;44792;52.760;6.726;2023-08-31T12:23:30;17.20;99.90
59007;DHT22;44792;52.760;6.726;2023-08-31T12:25:56;17.20;99.90
59007;DHT22;44792;52.760;6.726;2023-08-31T12:28:23;17.20;99.90
59007;DHT22;44792;52.760;6.726;2023-08-31T12:30:50;17.20;99.90
59007;DHT22;44792;52.760;6.726;2023-08-31T12:33:17;17.30;99.90
59007;DHT22;44792;52.760;6.726;2023-08-31T12:35:44;17.40;99.90
59007;DHT22;44792;52.760;6.726;2023-08-31T12:38:10;17.50;99.90
59007;DHT22;44792;52.760;6.726;2023-08-31T12:40:36;17.50;99.90
59007;DHT22;44792;52.760;6.726;2023-08-31T12:43:01;17.50;99.90
59007;DHT22;44792;52.760;6.726;2023-08-31T12:45:27;17.60;99.90
59007;DHT22;44792;52.760;6.726;2023-08-31T12:47:53;17.60;99.90
59007;DHT22;44792;52.760;6.726;2023-08-31T12:50:19;17.70;99.90
59007;DHT22;44792;52.760;6.726;2023-08-31T12:52:45;17.70;99.90
59007;DHT22;44792;52.760;6.726;2023-08-31T12:55:14;17.70;99.90
59007;DHT22;44792;52.760;6.726;2023-08-31T12:57:42;17.70;99.90
59007;DHT22;44792;52.760;6.726;2023-08-31T13:00:09;17.60;99.90
59007;DHT22;44792;52.760;6.726;2023-08-31T13:02:39;17.50;99.90
59007;DHT22;44792;52.760;6.726;2023-08-31T13:05:06;17.50;99.90
59007;DHT22;44792;52.760;6.726;2023-08-31T13:07:33;17.40;99.90
59007;DHT22;44792;52.760;6.726;2023-08-31T13:10:00;17.40;99.90
59007;DHT22;44792;52.760;6.726;2023-08-31T13:12:32;17.40;99.90
59007;DHT22;44792;52.760;6.726;2023-08-31T13:14:59;17.30;99.90
59007;DHT22;44792;52.760;6.726;2023-08-31T13:17:25;17.30;99.90
59007;DHT22;44792;52.760;6.726;2023-08-31T13:19:54;17.20;99.90
59007;DHT22;44792;52.760;6.726;2023-08-31T13:22:21;17.20;99.90
59007;DHT22;44792;52.760;6.726;2023-08-31T13:24:46;17.20;99.90
59007;DHT22;44792;52.760;6.726;2023-08-31T13:27:12;17.20;99.90
59007;DHT22;44792;52.760;6.726;2023-08-31T13:29:41;17.20;99.90
59007;DHT22;44792;52.760;6.726;2023-08-31T13:32:07;17.10;99.90
59007;DHT22;44792;52.760;6.726;2023-08-31T13:34:33;17.00;99.90
59007;DHT22;44792;52.760;6.726;2023-08-31T13:36:59;17.00;99.90
59007;DHT22;44792;52.760;6.726;2023-08-31T13:39:26;16.90;99.90
59007;DHT22;44792;52.760;6.726;2023-08-31T13:41:52;16.80;99.90
59007;DHT22;44792;52.760;6.726;2023-08-31T13:44:19;16.70;99.90
59007;DHT22;44792;52.760;6.726;2023-08-31T13:46:46;16.70;99.90
59007;DHT22;44792;52.760;6.726;2023-08-31T13:49:12;16.80;99.90
59007;DHT22;44792;52.760;6.726;2023-08-31T13:51:39;16.90;99.90
59007;DHT22;44792;52.760;6.726;2023-08-31T13:54:05;17.00;99.90
59007;DHT22;44792;52.760;6.726;2023-08-31T13:56:31;17.10;99.90
59007;DHT22;44792;52.760;6.726;2023-08-31T13:58:56;17.20;99.90
59007;DHT22;44792;52.760;6.726;2023-08-31T14:01:22;17.30;99.90
59007;DHT22;44792;52.760;6.726;2023-08-31T14:03:48;17.40;99.90
59007;DHT22;44792;52.760;6.726;2023-08-31T14:06:13;17.50;99.90
59007;DHT22;44792;52.760;6.726;2023-08-31T14:08:40;17.50;99.90
59007;DHT22;44792;52.760;6.726;2023-08-31T14:11:06;17.50;99.90
59007;DHT22;44792;52.760;6.726;2023-08-31T14:13:32;17.60;99.90
59007;DHT22;44792;52.760;6.726;2023-08-31T14:15:59;17.70;99.90
59007;DHT22;44792;52.760;6.726;2023-08-31T14:18:26;17.70;99.90
59007;DHT22;44792;52.760;6.726;2023-08-31T14:20:54;17.70;99.90
59007;DHT22;44792;52.760;6.726;2023-08-31T14:23:20;17.70;99.90
59007;DHT22;44792;52.760;6.726;2023-08-31T14:25:46;17.60;99.90
59007;DHT22;44792;52.760;6.726;2023-08-31T14:28:12;17.60;99.90
59007;DHT22;44792;52.760;6.726;2023-08-31T14:30:37;17.60;99.90
59007;DHT22;44792;52.760;6.726;2023-08-31T14:33:04;17.50;99.90
59007;DHT22;44792;52.760;6.726;2023-08-31T14:35:30;17.50;99.90
59007;DHT22;44792;52.760;6.726;2023-08-31T14:37:56;17.70;99.90
59007;DHT22;44792;52.760;6.726;2023-08-31T14:40:23;17.80;99.90
59007;DHT22;44792;52.760;6.726;2023-08-31T14:42:49;17.90;99.90
59007;DHT22;44792;52.760;6.726;2023-08-31T14:45:15;18.10;99.90
59007;DHT22;44792;52.760;6.726;2023-08-31T14:47:40;18.20;99.90
59007;DHT22;44792;52.760;6.726;2023-08-31T14:50:07;18.10;99.90
59007;DHT22;44792;52.760;6.726;2023-08-31T14:52:33;18.20;99.90
59007;DHT22;44792;52.760;6.726;2023-08-31T14:55:00;18.30;99.90
59007;DHT22;44792;52.760;6.726;2023-08-31T14:57:25;18.30;99.90
59007;DHT22;44792;52.760;6.726;2023-08-31T14:59:51;18.40;99.90
59007;DHT22;44792;52.760;6.726;2023-08-31T15:02:20;18.40;99.90
59007;DHT22;44792;52.760;6.726;2023-08-31T15:04:48;18.40;99.90
59007;DHT22;44792;52.760;6.726;2023-08-31T15:07:18;18.40;99.90
59007;DHT22;44792;52.760;6.726;2023-08-31T15:09:44;18.40;99.90
59007;DHT22;44792;52.760;6.726;2023-08-31T15:12:10;18.40;99.90
59007;DHT22;44792;52.760;6.726;2023-08-31T15:14:37;18.40;99.90
59007;DHT22;44792;52.760;6.726;2023-08-31T15:17:05;18.40;99.90
59007;DHT22;44792;52.760;6.726;2023-08-31T15:19:30;18.40;99.90
59007;DHT22;44792;52.760;6.726;2023-08-31T15:21:58;18.40;99.90
59007;DHT22;44792;52.760;6.726;2023-08-31T15:24:24;18.50;99.90
59007;DHT22;44792;52.760;6.726;2023-08-31T15:26:50;18.50;99.90
59007;DHT22;44792;52.760;6.726;2023-08-31T15:29:15;18.50;99.90
59007;DHT22;44792;52.760;6.726;2023-08-31T15:31:41;18.50;99.90
59007;DHT22;44792;52.760;6.726;2023-08-31T15:34:10;18.50;99.90
59007;DHT22;44792;52.760;6.726;2023-08-31T15:36:36;18.50;99.90
59007;DHT22;44792;52.760;6.726;2023-08-31T15:39:02;18.50;99.90
59007;DHT22;44792;52.760;6.726;2023-08-31T15:41:28;18.60;99.90
59007;DHT22;44792;52.760;6.726;2023-08-31T15:44:00;18.60;99.90
59007;DHT22;44792;52.760;6.726;2023-08-31T15:46:26;18.60;99.90
59007;DHT22;44792;52.760;6.726;2023-08-31T15:48:52;18.60;99.90
59007;DHT22;44792;52.760;6.726;2023-08-31T15:51:17;18.60;99.90
59007;DHT22;44792;52.760;6.726;2023-08-31T15:53:43;18.60;99.90
59007;DHT22;44792;52.760;6.726;2023-08-31T15:56:09;18.60;99.90
59007;DHT22;44792;52.760;6.726;2023-08-31T15:58:34;18.60;99.90
59007;DHT22;44792;52.760;6.726;2023-08-31T16:01:00;18.60;99.90
59007;DHT22;44792;52.760;6.726;2023-08-31T16:03:30;18.60;99.90
59007;DHT22;44792;52.760;6.726;2023-08-31T16:05:57;18.50;99.90
59007;DHT22;44792;52.760;6.726;2023-08-31T16:08:23;18.50;99.90
59007;DHT22;44792;52.760;6.726;2023-08-31T16:10:49;18.50;99.90
59007;DHT22;44792;52.760;6.726;2023-08-31T16:13:16;18.50;99.90
59007;DHT22;44792;52.760;6.726;2023-08-31T16:15:46;18.60;99.90
59007;DHT22;44792;52.760;6.726;2023-08-31T16:18:16;18.60;99.90
59007;DHT22;44792;52.760;6.726;2023-08-31T16:20:43;18.50;99.90
59007;DHT22;44792;52.760;6.726;2023-08-31T16:23:09;18.60;99.90
59007;DHT22;44792;52.760;6.726;2023-08-31T16:25:35;18.60;99.90
59007;DHT22;44792;52.760;6.726;2023-08-31T16:28:02;18.60;99.90
59007;DHT22;44792;52.760;6.726;2023-08-31T16:30:29;18.60;99.90